Time;durP1;ratioP1;P1;durP2;ratioP2;P2;SDS_P1;SDS_P2;PMS_P1;PMS_P2;Temp;Humidity;BMP_temperature;BMP_pressure;BME280_temperature;BME280_humidity;BME280_pressure;Samples;Min_cycle;Max_cycle;Signal;HPM_P1;HPM_P2
2022/06/13 00:14:16;;;;;;;7.85;4.03;;;;;;;20.82;75.59;99642.97;31571094;28;20048;-77
2022/06/13 00:29:18;;;;;;;7.93;4.45;;;;;;;20.65;76.44;99634.69;31551870;28;20415;-76
2022/06/13 00:44:35;;;;;;;8.38;4.22;;;;;;;20.58;77.00;99640.69;31570082;28;20062;-76
2022/06/13 00:59:37;;;;;;;7.45;4.82;;;;;;;20.62;77.25;99636.44;31580153;28;20036;-76
2022/06/13 01:15:17;;;;;;;6.63;5.30;;;;;;;20.56;78.58;99637.66;31601463;28;20056;-77
2022/06/13 01:30:51;;;;;;;7.70;5.03;;;;;;;20.45;78.28;99648.66;31575823;28;20056;-75
2022/06/13 01:45:55;;;;;;;9.27;4.97;;;;;;;20.14;79.32;99668.81;31559331;28;20055;-76
2022/06/13 02:01:09;;;;;;;11.00;5.32;;;;;;;20.03;80.21;99673.03;31558379;28;20122;-76
2022/06/13 02:16:16;;;;;;;6.33;4.20;;;;;;;20.05;79.81;99662.28;31569782;28;20055;-76
2022/06/13 02:31:36;;;;;;;7.38;4.32;;;;;;;20.15;79.79;99673.09;31560113;28;20500;-76
2022/06/13 02:46:44;;;;;;;5.88;3.90;;;;;;;20.37;79.25;99686.97;31571635;28;20040;-76
2022/06/13 03:01:52;;;;;;;7.05;4.18;;;;;;;20.64;78.98;99693.84;31574031;28;20480;-75
2022/06/13 03:17:05;;;;;;;9.07;4.75;;;;;;;21.00;78.23;99694.94;31561242;28;20052;-77
2022/06/13 03:32:15;;;;;;;7.03;3.92;;;;;;;21.28;77.28;99701.25;31565814;28;20504;-75
2022/06/13 03:47:26;;;;;;;4.75;3.53;;;;;;;21.84;75.36;99712.25;31586062;28;20048;-76
2022/06/13 04:02:32;;;;;;;5.00;3.42;;;;;;;22.30;72.50;99730.25;31599015;28;20050;-76
2022/06/13 04:17:53;;;;;;;5.82;4.20;;;;;;;22.67;70.59;99719.56;31571625;28;20048;-76
2022/06/13 04:33:04;;;;;;;5.97;4.22;;;;;;;23.15;68.26;99740.41;31567252;28;20066;-76
2022/06/13 04:48:09;;;;;;;7.95;5.10;;;;;;;23.74;66.50;99755.59;31613619;28;20058;-76
2022/06/13 05:03:23;;;;;;;11.15;5.75;;;;;;;24.37;64.05;99751.72;31563284;28;20059;-76
2022/06/13 05:18:46;;;;;;;13.02;7.07;;;;;;;25.17;61.95;99759.28;31562892;28;20518;-76
2022/06/13 05:33:50;;;;;;;11.23;6.17;;;;;;;25.81;60.52;99750.94;31583682;28;20052;-77
2022/06/13 05:48:52;;;;;;;10.05;7.18;;;;;;;26.24;57.50;99741.53;31612866;28;20475;-77
2022/06/13 06:03:55;;;;;;;12.77;6.55;;;;;;;26.68;56.70;99740.69;31576084;28;20052;-77
2022/06/13 06:19:08;;;;;;;16.60;5.53;;;;;;;26.91;55.60;99735.38;31567581;28;20048;-78
2022/06/13 06:34:48;;;;;;;16.77;5.80;;;;;;;27.15;54.95;99748.28;31558164;28;20066;-78
2022/06/13 06:49:50;;;;;;;9.27;5.18;;;;;;;27.47;54.70;99734.84;31559148;28;20139;-78
2022/06/13 07:04:59;;;;;;;9.75;5.03;;;;;;;28.34;50.35;99744.78;31565243;28;20157;-76
2022/06/13 07:20:01;;;;;;;8.82;5.32;;;;;;;28.69;47.67;99734.88;31561651;28;20555;-79
2022/06/13 07:35:03;;;;;;;8.60;4.03;;;;;;;29.21;47.25;99733.56;31562079;28;20140;-79
2022/06/13 07:50:06;;;;;;;12.13;4.88;;;;;;;29.68;46.54;99729.50;31520740;28;20434;-80
2022/06/13 08:05:08;;;;;;;8.55;5.78;;;;;;;30.10;44.94;99736.19;31547109;28;20105;-77
2022/06/13 08:20:11;;;;;;;12.25;4.60;;;;;;;30.89;42.66;99747.31;31562130;28;20052;-78
2022/06/13 08:35:14;;;;;;;7.97;4.28;;;;;;;31.34;41.90;99746.31;31558083;28;20055;-76
2022/06/13 08:50:37;;;;;;;5.35;3.70;;;;;;;32.02;40.54;99742.91;31567669;28;20082;-79
2022/06/13 09:06:18;;;;;;;8.82;4.32;;;;;;;31.93;39.54;99740.75;31566870;28;20476;-79
2022/06/13 09:22:19;;;;;;;7.53;3.28;;;;;;;32.24;38.96;99729.25;31567434;28;20052;-78
2022/06/13 09:37:33;;;;;;;5.97;3.50;;;;;;;33.03;38.86;99738.38;31535973;28;20040;-71
2022/06/13 09:52:59;;;;;;;9.23;4.03;;;;;;;33.21;38.30;99734.16;31564625;28;20041;-76
2022/06/13 10:08:23;;;;;;;7.25;3.13;;;;;;;33.22;37.97;99738.47;31592003;28;20040;-77
2022/06/13 10:23:54;;;;;;;9.32;4.10;;;;;;;33.83;36.82;99734.69;31563430;28;20056;-75
2022/06/13 10:39:03;;;;;;;6.80;3.60;;;;;;;33.90;34.87;99719.75;31573535;28;20056;-79
2022/06/13 10:54:15;;;;;;;8.02;3.72;;;;;;;33.26;35.47;99716.31;31558890;28;20056;-78
2022/06/13 11:09:39;;;;;;;8.25;3.85;;;;;;;30.80;39.46;99704.56;31575266;28;20036;-78
2022/06/13 11:24:52;;;;;;;5.78;3.67;;;;;;;31.15;40.42;99688.69;31575834;28;20058;-80
2022/06/13 11:39:59;;;;;;;5.05;3.50;;;;;;;30.77;38.49;99677.69;31550194;28;20060;-79
2022/06/13 11:55:01;;;;;;;8.45;4.15;;;;;;;30.43;38.08;99649.47;31554055;28;20048;-79
2022/06/13 12:10:19;;;;;;;5.75;4.00;;;;;;;30.18;39.02;99627.75;31577031;28;20135;-74
2022/06/13 12:25:33;;;;;;;5.88;4.10;;;;;;;30.24;38.97;99612.78;31586308;28;20056;-75
2022/06/13 12:40:47;;;;;;;5.68;3.90;;;;;;;29.91;39.29;99618.31;31536287;28;20500;-75
2022/06/13 12:55:55;;;;;;;6.28;3.67;;;;;;;30.34;38.71;99611.63;31575694;28;20131;-80
2022/06/13 13:11:15;;;;;;;8.95;4.50;;;;;;;30.27;37.79;99592.06;31588776;28;20130;-81
2022/06/13 13:26:26;;;;;;;5.73;2.67;;;;;;;30.13;37.77;99597.91;31579070;28;20047;-78
2022/06/13 13:41:39;;;;;;;4.15;2.97;;;;;;;29.91;38.09;99590.31;31560089;28;20054;-76
2022/06/13 13:56:50;;;;;;;3.90;2.50;;;;;;;29.64;38.15;99594.88;31545762;28;20052;-77
2022/06/13 14:12:08;;;;;;;3.33;2.13;;;;;;;29.20;35.62;99600.72;31545464;28;20048;-74
2022/06/13 14:27:13;;;;;;;2.97;2.35;;;;;;;29.04;36.69;99602.03;31514818;28;20135;-75
2022/06/13 14:42:16;;;;;;;20.50;10.45;;;;;;;29.16;36.92;99597.53;31437793;28;20105;-77
2022/06/13 14:57:27;;;;;;;4.25;2.97;;;;;;;29.65;36.57;99601.97;31435567;28;20076;-79
2022/06/13 15:12:38;;;;;;;4.25;3.15;;;;;;;29.56;38.04;99605.34;31437242;28;20135;-78
2022/06/13 15:27:51;;;;;;;6.43;3.30;;;;;;;29.42;38.56;99602.00;31409390;28;20416;-76
2022/06/13 15:42:55;;;;;;;10.10;4.05;;;;;;;29.16;39.02;99611.50;31441822;28;20389;-85
2022/06/13 15:58:00;;;;;;;9.32;4.55;;;;;;;28.83;39.56;99621.72;31455038;28;20045;-79
2022/06/13 16:13:05;;;;;;;6.53;4.00;;;;;;;28.52;41.95;99630.03;31443936;28;20048;-77
2022/06/13 16:28:10;;;;;;;5.35;3.78;;;;;;;27.98;44.25;99633.91;31439846;28;20053;-78
2022/06/13 16:43:34;;;;;;;6.32;3.80;;;;;;;27.46;45.37;99644.13;31461640;28;20051;-78
2022/06/13 16:58:46;;;;;;;6.15;3.33;;;;;;;27.06;46.19;99651.25;31430575;28;20049;-77
2022/06/13 17:13:55;;;;;;;7.95;3.75;;;;;;;26.83;46.81;99640.63;31453813;28;20056;-78
2022/06/13 17:44:18;;;;;;;13.13;5.00;;;;;;;26.45;48.35;99645.03;31449303;28;20582;-77
2022/06/13 17:59:21;;;;;;;6.93;5.60;;;;;;;25.92;50.99;99659.00;31465383;28;20057;-79
2022/06/13 18:14:23;;;;;;;5.30;4.00;;;;;;;25.52;53.04;99674.09;31420261;28;20071;-78
2022/06/13 18:29:25;;;;;;;9.32;5.95;;;;;;;25.30;53.77;99686.34;31444742;28;20053;-76
2022/06/13 18:44:27;;;;;;;;;;;;;;;24.95;57.41;99696.50;31424900;28;20058;-78
2022/06/13 18:59:29;;;;;;;7.53;5.30;;;;;;;24.53;58.23;99716.72;31467363;28;19927;-76
2022/06/13 19:14:32;;;;;;;7.43;5.20;;;;;;;24.62;56.92;99719.88;31423693;28;20056;-78
2022/06/13 19:29:38;;;;;;;11.52;7.88;;;;;;;24.60;57.50;99719.66;31418776;28;20049;-79
2022/06/13 19:44:41;;;;;;;9.45;5.63;;;;;;;24.66;57.14;99714.78;31404999;28;20956;-77
2022/06/13 19:59:43;;;;;;;7.25;5.38;;;;;;;24.69;57.14;99702.63;31415380;28;20059;-78
2022/06/13 20:14:45;;;;;;;6.90;5.37;;;;;;;24.47;57.98;99692.59;31408543;28;20511;-78
2022/06/13 20:29:51;;;;;;;6.53;5.10;;;;;;;24.32;59.13;99697.06;31433496;28;20128;-79
2022/06/13 20:45:02;;;;;;;14.30;9.13;;;;;;;24.15;60.47;99695.19;31447951;28;20056;-78
2022/06/13 21:00:06;;;;;;;19.40;9.30;;;;;;;24.07;60.61;99710.94;31472913;28;20048;-78
2022/06/13 21:15:11;;;;;;;13.35;5.40;;;;;;;23.93;61.08;99714.09;31441272;28;20552;-77
2022/06/13 21:30:15;;;;;;;10.73;5.05;;;;;;;23.62;62.46;99709.88;31444540;28;20524;-78
2022/06/13 21:45:20;;;;;;;10.68;5.10;;;;;;;23.43;63.62;99698.66;31432876;28;20041;-77
2022/06/13 22:00:25;;;;;;;11.68;4.70;;;;;;;23.34;65.16;99691.47;31449246;28;20040;-77
2022/06/13 22:15:28;;;;;;;11.00;4.80;;;;;;;23.33;65.16;99695.50;31420051;28;20044;-77
2022/06/13 22:30:32;;;;;;;9.32;5.45;;;;;;;23.20;66.38;99681.47;31426551;28;20132;-77
2022/06/13 22:45:36;;;;;;;14.55;5.90;;;;;;;22.90;67.73;99680.72;31403751;28;20492;-78
2022/06/13 23:00:38;;;;;;;18.45;6.45;;;;;;;22.92;68.27;99680.94;31427803;28;20093;-78
2022/06/13 23:15:40;;;;;;;11.90;6.60;;;;;;;22.50;70.71;99688.44;31425582;28;20127;-79
2022/06/13 23:30:42;;;;;;;13.50;7.17;;;;;;;22.37;71.34;99677.19;31416884;28;20055;-78
2022/06/13 23:45:45;;;;;;;13.30;7.13;;;;;;;22.43;71.78;99680.69;31417596;28;20064;-78
